Latest Weather Observations for Milingimbi

IDD60801

Issued at 8:11 pm CST Wednesday 5 August 2020 (issued every 10 minutes, with the page automatically refreshed every 10 minutes)

About weather observations | Map of weather stations | Latest weather observations for NT | Other Formats
Station Details ID: 014404 Name: MILINGIMBI AIRPORT Lat: -12.09 Lon: 134.89 Height: 15.0 m
Data from the previous 72 hours. | See also: Recent months at Milingimbi
Date/Time
CST
Temp
°C
App
Temp
°C
Dew
Point
°C
Rel
Hum
%
Delta-T
°C
Wind Press
QNH
hPa
Press
MSL
hPa
Rain since
9am
mm
Dir  Spd
km/h
Gust
km/h
Spd
kts
Gust
kts
05/08:00pm 23.8 26.6 20.5 82 2.1 NNE 6 9 3 5 1009.7 1009.6 0.0
05/07:30pm 24.0 26.5 19.9 78 2.6 NNE 6 9 3 5 1009.6 1009.5 0.0
05/07:00pm 24.4 26.4 19.2 73 3.3 NNE 7 11 4 6 1009.2 1009.1 0.0
05/06:30pm 24.9 26.7 19.5 72 3.5 N 9 13 5 7 1009.0 1008.9 0.0
05/06:00pm 25.6 27.1 19.0 67 4.2 N 9 17 5 9 1008.9 1008.8 0.0
05/05:30pm 26.7 28.2 18.8 62 5.1 N 9 15 5 8 1008.8 1008.7 0.0
05/05:00pm 26.9 26.7 17.7 57 5.8 N 15 24 8 13 1008.5 1008.4 0.0
05/04:30pm 27.4 27.4 17.3 54 6.3 NNE 13 22 7 12 1008.4 1008.3 0.0
05/04:00pm 28.5 28.8 17.1 50 7.2 N 11 19 6 10 1008.5 1008.4 0.0
05/03:30pm 28.3 27.3 16.6 49 7.3 NNE 17 24 9 13 1008.6 1008.5 0.0
05/03:00pm 29.8 30.2 17.3 47 7.9 N 11 19 6 10 1008.8 1008.7 0.0
05/02:30pm 30.1 30.4 16.9 45 8.3 N 11 19 6 10 1009.2 1009.1 0.0
05/02:00pm 29.6 29.7 16.4 45 8.2 NNE 11 15 6 8 1009.6 1009.5 0.0
05/01:30pm 30.1 30.0 16.1 42 8.7 NNE 11 20 6 11 1009.8 1009.7 0.0
05/01:00pm 29.8 30.7 17.6 48 7.8 ENE 9 17 5 9 1010.4 1010.3 0.0
05/12:30pm 29.1 29.6 16.6 46 7.8 NE 9 15 5 8 1011.0 1010.9 0.0
05/12:00pm 28.6 30.5 19.8 59 5.8 E 9 15 5 8 1011.5 1011.4 0.0
05/11:30am 27.8 30.4 20.4 64 4.9 NE 7 15 4 8 1012.1 1012.0 0.0
05/11:00am 27.0 29.0 19.9 65 4.6 ESE 9 17 5 9 1012.5 1012.4 0.0
05/10:30am 26.1 28.3 19.5 67 4.3 E 7 15 4 8 1012.9 1012.8 0.0
05/10:00am 26.9 28.8 19.8 65 4.6 ESE 9 15 5 8 1013.0 1012.9 0.0
05/09:30am 26.3 28.6 19.9 68 4.2 SE 7 13 4 7 1012.8 1012.7 0.0
05/09:00am 24.7 27.1 20.0 75 3.0 SE 7 9 4 5 1012.6 1012.5 0.0
05/08:30am 22.8 25.6 20.5 87 1.5 S 6 9 3 5 1012.5 1012.4 0.0
05/08:00am 20.7 23.5 19.7 94 0.6 S 4 7 2 4 1012.2 1012.1 0.0
05/07:30am 19.9 23.2 19.2 96 0.4 CALM 0 0 0 0 1012.0 1011.9 0.0
05/07:00am 19.3 22.2 18.3 94 0.6 CALM 0 0 0 0 1011.6 1011.5 0.0
05/06:30am 19.5 22.5 18.5 94 0.6 CALM 0 0 0 0 1011.5 1011.4 0.0
05/06:00am 20.3 23.4 19.6 96 0.4 ESE 2 6 1 3 1011.1 1011.0 0.0
05/05:30am 20.4 22.8 19.7 96 0.4 E 6 7 3 4 1011.0 1010.9 0.0
05/05:00am 20.2 23.3 19.4 95 0.5 ENE 2 6 1 3 1011.1 1011.0 0.0
05/04:30am 20.0 22.5 19.0 94 0.6 E 4 7 2 4 1011.3 1011.2 0.0
05/04:00am 19.8 22.1 18.5 92 0.8 E 4 7 2 4 1011.2 1011.1 0.0
05/03:30am 20.3 23.6 19.0 92 0.8 CALM 0 4 0 2 1011.2 1011.1 0.0
05/03:00am 20.7 23.7 19.2 91 0.9 ESE 2 7 1 4 1011.4 1011.3 0.0
05/02:30am 21.0 24.2 18.9 88 1.3 CALM 0 6 0 3 1011.6 1011.5 0.0
05/02:00am 21.5 23.7 19.1 86 1.5 SE 6 9 3 5 1011.6 1011.5 0.0
05/01:30am 22.3 24.4 19.3 83 1.9 SE 7 11 4 6 1011.8 1011.7 0.0
05/01:00am 22.8 24.3 19.8 83 1.9 ESE 11 17 6 9 1012.0 1011.9 0.0
05/12:30am 23.1 24.4 19.3 79 2.4 ESE 11 15 6 8 1012.2 1012.1 0.0
05/12:00am 23.5 25.0 19.0 76 2.9 ESE 9 19 5 10 1012.1 1012.0 0.0
 
Date/Time
CST
Temp
°C
App
Temp
°C
Dew
Point
°C
Rel
Hum
%
Delta-T
°C
Wind Press
QNH
hPa
Press
MSL
hPa
Rain since
9am
mm
Dir  Spd
km/h
Gust
km/h
Spd
kts
Gust
kts
04/11:30pm 23.9 25.1 19.0 74 3.1 E 11 20 6 11 1012.0 1011.9 0.0
04/11:00pm 24.2 25.7 19.7 76 2.9 E 11 17 6 9 1011.9 1011.8 0.0
04/10:30pm 24.4 26.3 20.5 79 2.5 ENE 11 20 6 11 1011.8 1011.7 0.0
04/10:00pm 24.6 26.6 20.7 79 2.6 ENE 11 19 6 10 1011.5 1011.4 0.0
04/09:30pm 24.5 26.4 20.6 79 2.5 ENE 11 24 6 13 1011.1 1011.0 0.0
04/09:00pm 24.2 27.3 21.5 85 1.8 NE 7 13 4 7 1010.8 1010.7 0.0
04/08:30pm 24.4 27.1 21.3 83 2.0 ENE 9 13 5 7 1010.7 1010.6 0.0
04/08:00pm 24.5 27.1 21.2 82 2.2 NE 9 15 5 8 1010.3 1010.2 0.0
04/07:30pm 24.6 27.1 21.1 81 2.3 NE 9 15 5 8 1010.1 1010.0 0.0
04/07:00pm 24.7 27.3 21.2 81 2.3 NNE 9 17 5 9 1009.9 1009.8 0.0
04/06:30pm 25.1 27.4 20.6 76 2.9 NE 9 17 5 9 1009.7 1009.6 0.0
04/06:00pm 26.0 27.8 19.6 68 4.1 NE 9 17 5 9 1009.4 1009.3 0.0
04/05:30pm 26.7 27.2 19.3 64 4.8 NE 15 22 8 12 1009.4 1009.3 0.0
04/05:00pm 27.9 28.5 18.6 57 6.0 NNE 13 20 7 11 1009.1 1009.0 0.0
04/04:30pm 29.0 29.5 17.5 49 7.3 NE 11 22 6 12 1009.0 1008.9 0.0
04/04:00pm 29.1 28.1 16.6 46 7.8 NE 17 24 9 13 1009.0 1008.9 0.0
04/03:30pm 30.4 30.5 17.5 46 8.2 NE 13 20 7 11 1009.1 1009.0 0.0
04/03:00pm 30.5 28.4 13.7 35 10.1 NE 17 30 9 16 1009.3 1009.2 0.0
04/02:30pm 32.0 30.0 12.8 31 11.5 ENE 15 26 8 14 1009.4 1009.3 0.0
04/02:00pm 31.3 29.4 13.1 33 10.9 ENE 15 20 8 11 1009.9 1009.8 0.0
04/01:30pm 30.9 29.9 14.5 37 10.0 ENE 13 24 7 13 1010.4 1010.3 0.0
04/01:00pm 31.6 30.3 13.8 34 10.8 E 13 22 7 12 1010.9 1010.8 0.0
04/12:30pm 30.4 29.4 14.5 38 9.7 E 13 22 7 12 1011.5 1011.4 0.0
04/12:00pm 30.5 30.0 15.0 39 9.5 ESE 11 17 6 9 1011.9 1011.8 0.0
04/11:30am 30.0 29.6 15.3 41 9.0 E 11 20 6 11 1012.3 1012.2 0.0
04/11:00am 28.4 28.4 16.3 47 7.5 E 11 20 6 11 1012.6 1012.5 0.0
04/10:30am 28.4 28.8 16.3 47 7.5 ESE 9 17 5 9 1012.7 1012.6 0.0
04/10:00am 26.8 27.4 17.8 57 5.7 ESE 11 17 6 9 1013.1 1013.0 0.0
04/09:30am 26.6 28.5 19.0 63 4.9 ESE 7 13 4 7 1013.2 1013.1 0.0
04/09:00am 24.5 26.3 19.6 74 3.2 ESE 9 15 5 8 1013.0 1012.9 0.0
04/08:30am 23.1 24.5 19.5 80 2.3 SE 11 15 6 8 1012.8 1012.7 0.0
04/08:00am 21.9 24.2 20.7 93 0.8 SSE 9 13 5 7 1012.7 1012.6 0.0
04/07:30am 20.9 23.4 20.2 96 0.4 SE 7 11 4 6 1012.3 1012.2 0.0
04/07:00am 20.3 22.5 19.6 96 0.4 SE 7 11 4 6 1012.0 1011.9 0.0
04/06:30am 20.1 22.3 19.3 95 0.5 SE 6 9 3 5 1011.5 1011.4 0.0
04/06:00am 20.1 22.3 19.1 94 0.6 SSE 6 9 3 5 1011.4 1011.3 0.0
04/05:30am 20.3 22.5 19.1 93 0.8 SE 6 7 3 4 1011.3 1011.2 0.0
04/05:00am 20.4 22.5 18.9 91 0.9 SE 6 9 3 5 1011.3 1011.2 0.0
04/04:30am 20.7 22.6 19.0 90 1.1 SE 7 9 4 5 1011.2 1011.1 0.0
04/04:00am 20.9 22.8 19.0 89 1.2 SE 7 11 4 6 1011.2 1011.1 0.0
04/03:30am 21.2 23.3 18.9 87 1.4 SE 6 9 3 5 1011.4 1011.3 0.0
04/03:00am 21.8 24.9 18.6 82 2.0 CALM 0 6 0 3 1011.6 1011.5 0.0
04/02:30am 22.5 24.6 18.9 80 2.3 SSE 6 9 3 5 1011.7 1011.6 0.0
04/02:00am 23.2 25.5 19.8 81 2.2 ESE 7 11 4 6 1011.9 1011.8 0.0
04/01:30am 23.3 25.3 19.9 81 2.2 ESE 9 17 5 9 1012.2 1012.1 0.0
04/01:00am 23.4 25.3 19.8 80 2.3 E 9 15 5 8 1012.2 1012.1 0.0
04/12:30am 23.7 25.5 19.6 78 2.6 E 9 15 5 8 1012.3 1012.2 0.0
04/12:00am 24.0 25.9 19.7 77 2.8 E 9 15 5 8 1012.3 1012.2 0.0
 
Date/Time
CST
Temp
°C
App
Temp
°C
Dew
Point
°C
Rel
Hum
%
Delta-T
°C
Wind Press
QNH
hPa
Press
MSL
hPa
Rain since
9am
mm
Dir  Spd
km/h
Gust
km/h
Spd
kts
Gust
kts
03/11:30pm 24.4 25.9 19.7 75 3.0 E 11 20 6 11 1012.4 1012.3 0.0
03/11:00pm 24.4 26.4 19.9 76 2.9 E 9 15 5 8 1012.5 1012.4 0.0
03/10:30pm 24.6 26.9 20.7 79 2.6 E 9 15 5 8 1012.4 1012.3 0.0
03/10:00pm 24.8 27.0 20.5 77 2.8 E 9 17 5 9 1012.1 1012.0 0.0
03/09:30pm 24.5 26.7 20.4 78 2.7 ENE 9 17 5 9 1011.9 1011.8 0.0
03/09:00pm 24.4 26.6 20.5 79 2.5 ENE 9 15 5 8 1011.7 1011.6 0.0
03/08:30pm 24.6 26.9 20.7 79 2.6 ENE 9 15 5 8 1011.4 1011.3 0.0
03/08:00pm 24.7 27.0 20.6 78 2.7 ENE 9 13 5 7 1011.3 1011.2 0.0
03/07:30pm 24.8 26.6 19.6 73 3.4 NE 9 17 5 9 1011.0 1010.9 0.0
03/07:00pm 25.1 26.7 19.2 70 3.8 NE 9 19 5 10 1010.6 1010.5 0.0
03/06:30pm 25.5 26.6 18.9 67 4.2 NE 11 20 6 11 1010.5 1010.4 0.0
03/06:00pm 26.1 26.9 19.0 65 4.6 NE 13 28 7 15 1010.3 1010.2 0.0
03/05:30pm 26.8 27.7 19.2 63 4.9 NE 13 22 7 12 1010.2 1010.1 0.0
03/05:00pm 27.2 27.4 19.3 62 5.1 NE 17 30 9 16 1010.1 1010.0 0.0
03/04:30pm 28.7 29.4 18.8 55 6.4 NE 13 22 7 12 1010.2 1010.1 0.0
03/04:00pm 28.7 29.9 19.9 59 5.8 NNE 13 22 7 12 1010.1 1010.0 0.0
03/03:30pm 29.6 30.0 18.1 50 7.4 NE 13 24 7 13 1010.2 1010.1 0.0
03/03:00pm 29.1 29.0 17.9 50 7.1 NE 15 22 8 12 1010.5 1010.4 0.0
03/02:30pm 30.2 30.5 18.0 48 7.8 ENE 13 22 7 12 1010.7 1010.6 0.0
03/02:00pm 29.4 30.0 17.6 49 7.5 NE 11 20 6 11 1011.2 1011.1 0.0
03/01:30pm 30.6 31.6 17.7 46 8.2 E 9 17 5 9 1011.7 1011.6 0.0
03/01:00pm 30.1 30.1 17.2 46 8.2 E 13 22 7 12 1012.1 1012.0 0.0
03/12:30pm 30.1 30.1 17.2 46 8.2 ESE 13 24 7 13 1012.6 1012.5 0.0
03/12:00pm 29.9 29.6 17.4 47 7.9 ESE 15 24 8 13 1012.9 1012.8 0.0
03/11:30am 28.9 28.9 17.1 49 7.4 E 13 26 7 14 1013.4 1013.3 0.0
03/11:00am 28.9 28.6 17.4 49 7.3 ESE 15 24 8 13 1013.5 1013.4 0.0
03/10:30am 28.6 28.1 16.8 48 7.4 ESE 15 22 8 12 1013.8 1013.7 0.0
03/10:00am 28.0 28.3 17.8 54 6.5 SE 13 20 7 11 1014.2 1014.1 0.0
03/09:30am 25.7 25.7 18.9 66 4.3 SE 17 24 9 13 1014.3 1014.2 0.0
03/09:00am 25.3 26.3 19.4 70 3.8 ESE 13 19 7 10 1014.1 1014.0 0.0
03/08:30am 23.3 24.7 19.5 79 2.4 SE 11 17 6 9 1013.8 1013.7 0.0
03/08:00am 21.9 23.7 19.5 86 1.5 SE 9 17 5 9 1013.6 1013.5 0.0
03/07:30am 20.6 22.8 19.6 94 0.6 SE 7 11 4 6 1013.5 1013.4 0.0
03/07:00am 20.2 22.2 19.2 94 0.6 SSE 7 9 4 5 1013.2 1013.1 0.0
03/06:30am 19.9 21.8 18.6 92 0.8 SSE 6 9 3 5 1013.0 1012.9 0.0
03/06:00am 20.2 22.1 18.9 92 0.8 SSE 7 11 4 6 1012.8 1012.7 0.0
03/05:30am 20.2 22.2 18.7 91 0.9 SSE 6 9 3 5 1012.6 1012.5 0.0
03/05:00am 20.5 22.3 18.8 90 1.1 SSE 7 11 4 6 1012.3 1012.2 0.0
03/04:30am 20.6 22.4 18.7 89 1.2 SSE 7 11 4 6 1012.4 1012.3 0.0
03/04:00am 20.9 22.8 19.0 89 1.2 SSE 7 11 4 6 1012.3 1012.2 0.0
03/03:30am 20.3 22.0 18.4 89 1.2 SE 7 11 4 6 1012.3 1012.2 0.0
03/03:00am 20.6 22.4 18.2 86 1.5 SE 6 9 3 5 1012.3 1012.2 0.0
03/02:30am 21.4 23.1 18.4 83 1.9 SE 7 11 4 6 1012.6 1012.5 0.0
03/02:00am 21.8 23.1 18.4 81 2.1 SSE 9 19 5 10 1012.7 1012.6 0.0
03/01:30am 22.3 23.5 19.1 82 2.0 SE 11 15 6 8 1012.9 1012.8 0.0
03/01:00am 22.4 23.9 19.0 81 2.2 ESE 9 17 5 9 1012.9 1012.8 0.0
03/12:30am 22.7 23.8 18.9 79 2.4 ESE 11 15 6 8 1013.1 1013.0 0.0
03/12:00am 22.9 24.3 18.7 77 2.7 ESE 9 19 5 10 1013.2 1013.1 0.0
 
Date/Time
CST
Temp
°C
App
Temp
°C
Dew
Point
°C
Rel
Hum
%
Delta-T
°C
Wind Press
QNH
hPa
Press
MSL
hPa
Rain since
9am
mm
Dir  Spd
km/h
Gust
km/h
Spd
kts
Gust
kts
02/11:30pm 23.4 24.0 18.7 75 3.0 ESE 13 22 7 12 1013.2 1013.1 0.0
02/11:00pm 23.8 23.9 18.4 72 3.4 ESE 15 24 8 13 1013.4 1013.3 0.0
02/10:30pm 24.3 24.1 18.5 70 3.7 ESE 17 28 9 15 1013.3 1013.2 0.0
02/10:00pm 24.7 24.2 18.6 69 3.9 ESE 19 28 10 15 1013.2 1013.1 0.0
02/09:30pm 25.3 26.2 19.2 69 3.9 E 13 26 7 14 1012.9 1012.8 0.0
02/09:00pm 25.1 27.4 20.6 76 2.9 E 9 22 5 12 1012.5 1012.4 0.0
02/08:30pm 24.4 27.1 21.3 83 2.0 NE 9 13 5 7 1012.1 1012.0 0.0

Other formats

Comma delimited format used in spreadsheet applications
http://www.bom.gov.au/fwo/IDD60801/IDD60801.94140.axf

JavaScript Object Notation format (JSON) in row-major order
http://www.bom.gov.au/fwo/IDD60801/IDD60801.94140.json

Data quality

Most of these data are generated automatically and are frequently updated. Quality checks on data are not normally performed. It is possible for incorrect values to appear. Refer to information at About Latest Weather Observations and please check the disclaimer before using these data.